Time;durP1;ratioP1;P1;durP2;ratioP2;P2;SDS_P1;SDS_P2;PMS_P1;PMS_P2;Temp;Humidity;BMP_temperature;BMP_pressure;BME280_temperature;BME280_humidity;BME280_pressure;Samples;Min_cycle;Max_cycle;Signal;HPM_P1;HPM_P2
2022/11/16 00:00:28;;;;;;;;;;;20.60;56.00;;;;;;6253621;28;20147;-37
2022/11/16 00:03:30;;;;;;;0.52;0.20;;;20.50;55.10;;;;;;6252500;28;19931;-38
2022/11/16 00:06:32;;;;;;;0.55;0.20;;;20.80;56.30;;;;;;6251833;28;20041;-38
2022/11/16 00:09:34;;;;;;;0.60;0.60;;;20.90;56.30;;;;;;6249985;28;20038;-38
2022/11/16 00:12:37;;;;;;;0.43;0.30;;;21.40;56.30;;;;;;6251758;28;20056;-38
2022/11/16 00:15:38;;;;;;;0.70;0.40;;;21.40;56.50;;;;;;6255101;28;20051;-38
2022/11/16 00:18:40;;;;;;;0.50;0.20;;;20.80;56.40;;;;;;6249816;28;21523;-37
2022/11/16 00:21:42;;;;;;;0.60;0.40;;;21.10;56.00;;;;;;6249062;28;20049;-38
2022/11/16 00:24:44;;;;;;;0.45;0.32;;;20.60;56.20;;;;;;6234649;28;20166;-37
2022/11/16 00:27:45;;;;;;;0.70;0.40;;;21.00;56.30;;;;;;6237153;28;20043;-38
2022/11/16 00:30:47;;;;;;;;;;;20.80;55.90;;;;;;6235821;28;20830;-37
2022/11/16 00:33:49;;;;;;;0.32;0.17;;;21.30;56.90;;;;;;6232987;28;20851;-37
2022/11/16 00:36:50;;;;;;;0.30;0.25;;;20.90;56.30;;;;;;6229032;28;20051;-37
2022/11/16 00:39:53;;;;;;;0.20;0.20;;;20.70;56.30;;;;;;6251903;28;20045;-36
2022/11/16 00:42:55;;;;;;;0.40;0.30;;;20.90;56.60;;;;;;6246237;28;20142;-38
2022/11/16 00:45:56;;;;;;;;;;;21.00;56.30;;;;;;6254670;28;20048;-37
2022/11/16 00:48:57;;;;;;;0.30;0.10;;;21.00;56.70;;;;;;6253871;28;19928;-37
2022/11/16 00:51:59;;;;;;;;;;;20.90;56.20;;;;;;6254199;28;20221;-37
2022/11/16 00:55:01;;;;;;;;;;;20.60;56.80;;;;;;6252632;28;19927;-38
2022/11/16 00:58:03;;;;;;;0.65;0.40;;;20.80;56.90;;;;;;6250011;28;19926;-38
2022/11/16 01:01:06;;;;;;;0.75;0.38;;;20.70;56.60;;;;;;6230367;28;20055;-37
2022/11/16 01:04:08;;;;;;;0.32;0.22;;;20.70;56.40;;;;;;6238543;28;20048;-38
2022/11/16 01:07:10;;;;;;;1.25;0.30;;;20.30;56.30;;;;;;6257624;28;20221;-37
2022/11/16 01:10:15;;;;;;;0.30;0.20;;;20.50;56.40;;;;;;6255363;28;20909;-37
2022/11/16 01:13:17;;;;;;;0.20;0.20;;;20.40;56.10;;;;;;6225329;28;20993;-37
2022/11/16 01:16:21;;;;;;;0.63;0.20;;;20.80;56.50;;;;;;6247607;28;20939;-37
2022/11/16 01:19:22;;;;;;;0.68;0.40;;;20.80;56.40;;;;;;6230691;28;20044;-37
2022/11/16 01:22:23;;;;;;;;;;;20.70;56.00;;;;;;6254274;28;20538;-38
2022/11/16 01:25:25;;;;;;;0.20;0.10;;;20.60;56.60;;;;;;6258321;28;20834;-37
2022/11/16 01:28:28;;;;;;;0.47;0.20;;;20.90;56.60;;;;;;6256406;28;20072;-37
2022/11/16 01:31:30;;;;;;;0.32;0.20;;;20.70;56.40;;;;;;6242693;28;20079;-37
2022/11/16 01:34:32;;;;;;;0.20;0.20;;;20.70;56.40;;;;;;6261469;28;20087;-38
2022/11/16 01:37:40;;;;;;;0.57;0.20;;;20.80;56.50;;;;;;6254681;28;20085;-38
2022/11/16 01:40:42;;;;;;;0.28;0.17;;;20.50;56.30;;;;;;6260379;28;21055;-38
2022/11/16 01:43:54;;;;;;;0.40;0.20;;;20.70;56.50;;;;;;6237179;28;20033;-37
2022/11/16 01:46:59;;;;;;;0.75;0.30;;;20.20;55.90;;;;;;6253890;28;20198;-37
2022/11/16 01:50:08;;;;;;;0.30;0.20;;;20.70;57.00;;;;;;6234127;28;20040;-38
2022/11/16 01:53:12;;;;;;;0.28;0.20;;;20.70;56.30;;;;;;6247785;28;20036;-37
2022/11/16 01:56:23;;;;;;;0.50;0.30;;;20.80;56.60;;;;;;6254114;28;20040;-37
2022/11/16 01:59:35;;;;;;;0.65;0.28;;;20.80;56.60;;;;;;6252522;28;20065;-37
2022/11/16 02:02:38;;;;;;;0.90;0.30;;;20.90;56.70;;;;;;6255009;28;20036;-38
2022/11/16 02:05:49;;;;;;;0.82;0.32;;;20.70;56.70;;;;;;6256957;28;20054;-37
2022/11/16 02:12:50;;;;;;;0.30;0.20;;;20.80;56.60;;;;;;6258128;28;20041;-38
2022/11/16 02:16:05;;;;;;;0.82;0.25;;;20.80;56.60;;;;;;6256032;28;20475;-38
2022/11/16 02:19:28;;;;;;;0.57;0.22;;;20.70;56.60;;;;;;6230657;28;20882;-37
2022/11/16 02:22:43;;;;;;;0.38;0.20;;;20.80;56.50;;;;;;6249358;28;20463;-38
2022/11/16 02:25:55;;;;;;;0.40;0.20;;;20.40;56.50;;;;;;6255021;28;20052;-37
2022/11/16 02:29:15;;;;;;;0.40;0.13;;;20.30;56.20;;;;;;6253569;28;20248;-38
2022/11/16 02:32:22;;;;;;;0.30;0.20;;;20.60;56.70;;;;;;6252216;28;20044;-38
2022/11/16 02:35:30;;;;;;;0.17;0.10;;;20.60;56.60;;;;;;6233497;28;20044;-37
2022/11/16 02:38:37;;;;;;;0.30;0.10;;;20.60;56.60;;;;;;6237026;28;20081;-39
2022/11/16 02:41:43;;;;;;;0.50;0.28;;;20.70;56.60;;;;;;6234388;28;20573;-38
2022/11/16 02:44:50;;;;;;;0.20;0.10;;;20.50;56.60;;;;;;6242271;28;20358;-38
2022/11/16 02:47:55;;;;;;;0.20;0.10;;;20.70;56.70;;;;;;6259936;28;20044;-38
2022/11/16 02:50:57;;;;;;;0.20;0.20;;;20.80;56.90;;;;;;6238089;28;21041;-38
2022/11/16 02:54:01;;;;;;;0.17;0.10;;;20.70;56.90;;;;;;6260714;28;20296;-38
2022/11/16 02:57:25;;;;;;;0.55;0.20;;;20.40;56.70;;;;;;6235335;28;20065;-38
2022/11/16 03:00:32;;;;;;;0.20;0.10;;;20.70;56.90;;;;;;6259158;28;20482;-38
2022/11/16 03:03:41;;;;;;;0.15;0.15;;;20.40;56.80;;;;;;6255537;28;20044;-38
2022/11/16 03:06:47;;;;;;;0.40;0.20;;;20.40;56.70;;;;;;6259118;28;20874;-38
2022/11/16 03:09:51;;;;;;;0.20;0.15;;;20.70;56.90;;;;;;6244653;28;20281;-38
2022/11/16 03:12:52;;;;;;;0.17;0.10;;;20.70;56.90;;;;;;6256674;28;20033;-37
2022/11/16 03:15:55;;;;;;;0.52;0.20;;;20.80;57.10;;;;;;6247380;28;20740;-37
2022/11/16 03:19:01;;;;;;;0.25;0.17;;;20.70;57.60;;;;;;6235735;28;20032;-37
2022/11/16 03:22:09;;;;;;;0.50;0.22;;;20.80;56.80;;;;;;6254063;28;20103;-38
2022/11/16 03:25:16;;;;;;;0.13;0.13;;;20.70;57.00;;;;;;6232806;28;20776;-38
2022/11/16 03:28:24;;;;;;;0.63;0.30;;;20.90;57.20;;;;;;6239930;28;20388;-37
2022/11/16 03:31:33;;;;;;;0.73;0.32;;;20.70;57.10;;;;;;6247833;28;20063;-37
2022/11/16 03:34:38;;;;;;;0.13;0.10;;;20.40;56.90;;;;;;6237545;28;20153;-38
2022/11/16 03:37:40;;;;;;;0.22;0.17;;;20.60;57.10;;;;;;6256973;28;20059;-37
2022/11/16 03:40:45;;;;;;;0.30;0.20;;;21.00;57.30;;;;;;6261096;28;20483;-37
2022/11/16 03:43:49;;;;;;;0.30;0.30;;;20.70;57.20;;;;;;6230384;28;20073;-38
2022/11/16 03:46:52;;;;;;;0.77;0.20;;;20.90;57.40;;;;;;6254147;28;20036;-37
2022/11/16 03:49:54;;;;;;;0.57;0.13;;;20.70;57.50;;;;;;6263185;28;20037;-38
2022/11/16 03:52:58;;;;;;;0.20;0.20;;;20.50;57.40;;;;;;6260079;28;20133;-37
2022/11/16 03:55:59;;;;;;;0.32;0.20;;;20.90;57.60;;;;;;6262180;28;20162;-38
2022/11/16 03:59:03;;;;;;;0.25;0.13;;;20.60;57.30;;;;;;6258079;28;21060;-37
2022/11/16 04:02:05;;;;;;;0.40;0.22;;;20.80;57.80;;;;;;6254385;28;20044;-38
2022/11/16 04:24:51;;;;;;;0.50;0.20;;;21.00;58.60;;;;;;6263681;28;20106;-38
2022/11/16 04:37:48;;;;;;;0.60;0.30;;;20.70;58.90;;;;;;6255761;28;20051;-38
2022/11/16 04:40:54;;;;;;;0.60;0.30;;;20.60;59.00;;;;;;6251893;28;20043;-38
2022/11/16 04:43:58;;;;;;;0.73;0.20;;;20.70;59.30;;;;;;6256291;28;20902;-37
2022/11/16 04:47:06;;;;;;;0.85;0.20;;;20.50;59.20;;;;;;6239378;28;20037;-37
2022/11/16 04:50:10;;;;;;;1.10;0.30;;;20.70;59.20;;;;;;6257678;28;20056;-38
2022/11/16 04:53:14;;;;;;;0.45;0.38;;;20.40;59.10;;;;;;6248887;28;20155;-37
2022/11/16 04:56:23;;;;;;;0.65;0.30;;;20.60;59.30;;;;;;6220147;28;20159;-37
2022/11/16 04:59:25;;;;;;;0.55;0.13;;;20.80;59.50;;;;;;6252397;28;20252;-37
2022/11/16 05:02:27;;;;;;;0.63;0.25;;;20.70;59.60;;;;;;6255731;28;20044;-37
2022/11/16 05:05:32;;;;;;;0.95;0.30;;;20.70;59.70;;;;;;6256642;28;20048;-36
2022/11/16 05:08:34;;;;;;;0.70;0.30;;;20.40;59.60;;;;;;6254020;28;20060;-37
2022/11/16 05:11:37;;;;;;;0.57;0.30;;;20.70;59.70;;;;;;6240098;28;20094;-38
2022/11/16 05:14:39;;;;;;;0.60;0.30;;;20.70;59.80;;;;;;6252546;28;20036;-38
2022/11/16 05:17:42;;;;;;;0.43;0.30;;;20.50;59.60;;;;;;6253081;28;20313;-38
2022/11/16 05:27:27;;;;;;;0.85;0.30;;;20.40;59.60;;;;;;6254243;28;20032;-38
2022/11/16 05:30:28;;;;;;;1.02;0.30;;;20.40;59.60;;;;;;6250455;28;20032;-37
2022/11/16 05:33:32;;;;;;;0.73;0.40;;;20.80;60.00;;;;;;6252798;28;20075;-38
2022/11/16 05:36:34;;;;;;;;;;;20.70;60.00;;;;;;6257938;28;20913;-37
2022/11/16 05:39:37;;;;;;;0.55;0.30;;;20.80;60.20;;;;;;6256951;28;19924;-38
2022/11/16 05:42:38;;;;;;;0.75;0.40;;;20.60;59.90;;;;;;6246331;28;20117;-37
2022/11/16 05:45:39;;;;;;;;;;;20.80;60.00;;;;;;6254380;28;20424;-38
2022/11/16 05:48:42;;;;;;;0.70;0.43;;;20.50;60.20;;;;;;6252429;28;19927;-38
2022/11/16 05:51:45;;;;;;;;;;;20.60;59.80;;;;;;6260067;28;20048;-37
2022/11/16 05:54:49;;;;;;;0.70;0.30;;;20.60;60.10;;;;;;6251899;28;19935;-38
2022/11/16 05:57:50;;;;;;;0.88;0.38;;;20.70;59.90;;;;;;6251181;28;20754;-38
2022/11/16 06:00:52;;;;;;;0.93;0.32;;;20.70;59.90;;;;;;6243984;28;20044;-37
2022/11/16 06:03:54;;;;;;;0.60;0.30;;;20.80;60.00;;;;;;6252052;28;20866;-38
2022/11/16 06:06:56;;;;;;;0.60;0.30;;;20.70;59.90;;;;;;6233078;28;20874;-37
2022/11/16 06:10:03;;;;;;;0.60;0.40;;;20.70;59.70;;;;;;6243928;28;20052;-38
2022/11/16 06:13:06;;;;;;;0.95;0.40;;;20.70;59.80;;;;;;6238616;28;20345;-37
2022/11/16 06:16:08;;;;;;;;;;;20.80;60.00;;;;;;6235826;28;20737;-38
2022/11/16 06:19:10;;;;;;;0.77;0.30;;;20.50;60.00;;;;;;6253175;28;19939;-38
2022/11/16 06:22:12;;;;;;;0.75;0.40;;;21.00;59.90;;;;;;6251749;28;20043;-38
2022/11/16 06:25:14;;;;;;;0.88;0.50;;;20.70;60.00;;;;;;6257709;28;20048;-40
2022/11/16 06:28:18;;;;;;;1.67;0.60;;;20.60;59.90;;;;;;6250707;28;20073;-38
2022/11/16 06:31:20;;;;;;;0.93;0.50;;;20.90;60.00;;;;;;6253059;28;20823;-37
2022/11/16 06:34:21;;;;;;;;;;;20.70;59.40;;;;;;6239886;28;20056;-37
2022/11/16 06:37:23;;;;;;;1.58;0.40;;;20.90;60.10;;;;;;6251953;28;20873;-38
2022/11/16 06:40:25;;;;;;;1.88;0.47;;;20.70;59.80;;;;;;6245311;28;20044;-38
2022/11/16 06:43:27;;;;;;;0.63;0.38;;;21.00;60.00;;;;;;6243464;28;20763;-37
2022/11/16 06:46:31;;;;;;;2.80;0.63;;;20.90;59.50;;;;;;6250444;28;20179;-38
2022/11/16 06:49:33;;;;;;;1.92;0.40;;;21.00;60.10;;;;;;6237318;28;20886;-38
2022/11/16 06:52:39;;;;;;;1.77;0.50;;;20.70;59.90;;;;;;6236214;28;20048;-38
2022/11/16 06:55:41;;;;;;;1.40;0.45;;;20.60;59.70;;;;;;6242762;28;20036;-37
2022/11/16 06:58:42;;;;;;;;;;;20.90;59.60;;;;;;6203876;28;20055;-37
2022/11/16 07:01:45;;;;;;;0.63;0.30;;;21.00;60.00;;;;;;6225612;28;19928;-38
2022/11/16 07:04:48;;;;;;;1.40;0.60;;;20.90;59.60;;;;;;6228078;28;20052;-38
2022/11/16 07:07:54;;;;;;;1.67;0.63;;;20.80;59.80;;;;;;6221121;28;20050;-39
2022/11/16 07:10:55;;;;;;;0.60;0.40;;;20.70;59.60;;;;;;6208300;28;20050;-39
2022/11/16 07:14:04;;;;;;;1.23;0.40;;;20.90;59.90;;;;;;6221258;28;20102;-39
2022/11/16 07:17:06;;;;;;;1.60;0.40;;;20.70;59.50;;;;;;6211621;28;20931;-37
2022/11/16 07:20:11;;;;;;;1.45;0.30;;;20.90;59.90;;;;;;6206320;28;20044;-37
2022/11/16 07:23:14;;;;;;;0.30;0.20;;;20.90;59.80;;;;;;6202233;28;20051;-38
2022/11/16 07:26:19;;;;;;;0.80;0.30;;;21.10;60.00;;;;;;6204141;28;20036;-38
2022/11/16 07:29:27;;;;;;;0.68;0.30;;;20.80;59.90;;;;;;6218733;28;20056;-38
2022/11/16 07:32:47;;;;;;;0.30;0.20;;;20.70;59.90;;;;;;6186009;28;20121;-37
2022/11/16 07:36:01;;;;;;;0.50;0.30;;;20.90;59.60;;;;;;6193436;28;20056;-38
2022/11/16 07:39:03;;;;;;;3.90;0.10;;;20.80;59.80;;;;;;6193789;28;20047;-40
2022/11/16 07:42:10;;;;;;;0.40;0.22;;;21.10;60.00;;;;;;6178460;28;20047;-38
2022/11/16 07:45:32;;;;;;;0.60;0.30;;;20.90;59.80;;;;;;6149936;28;20058;-38
2022/11/16 07:48:41;;;;;;;0.50;0.30;;;21.20;59.90;;;;;;6131468;28;20032;-38
2022/11/16 07:52:03;;;;;;;0.35;0.13;;;20.80;59.80;;;;;;6107170;28;21441;-38
2022/11/16 07:55:19;;;;;;;;;;;21.00;59.50;;;;;;6134812;28;21243;-37
2022/11/16 07:58:26;;;;;;;1.85;0.30;;;21.20;57.80;;;;;;6075980;28;19980;-38
2022/11/16 08:01:31;;;;;;;1.08;0.30;;;21.10;60.20;;;;;;5972399;28;20560;-38
2022/11/16 08:04:33;;;;;;;1.27;0.45;;;20.70;60.20;;;;;;6015813;28;20052;-36
2022/11/16 08:07:35;;;;;;;0.98;0.43;;;21.00;61.20;;;;;;6035773;28;21573;-36
2022/11/16 08:10:38;;;;;;;4.20;0.85;;;21.10;61.40;;;;;;6040105;28;20052;-36
2022/11/16 08:13:40;;;;;;;0.80;0.40;;;20.80;61.20;;;;;;5992901;28;23532;-36
2022/11/16 08:16:44;;;;;;;0.95;0.20;;;20.90;61.70;;;;;;6000740;28;20079;-36
2022/11/16 08:19:48;;;;;;;0.50;0.20;;;21.10;61.80;;;;;;5982755;28;20164;-37
2022/11/16 08:22:51;;;;;;;0.90;0.20;;;20.90;61.70;;;;;;5991299;28;20052;-37
2022/11/16 08:25:57;;;;;;;1.10;0.55;;;21.10;61.60;;;;;;5989878;28;20051;-37
2022/11/16 08:28:59;;;;;;;0.52;0.22;;;21.20;62.00;;;;;;6004144;28;20187;-38
2022/11/16 08:32:06;;;;;;;0.75;0.35;;;21.00;61.70;;;;;;5936855;28;20175;-37
2022/11/16 08:35:09;;;;;;;0.50;0.20;;;20.80;62.00;;;;;;5885697;28;20044;-36
2022/11/16 08:38:11;;;;;;;1.85;0.20;;;21.20;61.90;;;;;;5898331;28;20052;-38
2022/11/16 08:41:16;;;;;;;0.75;0.22;;;21.10;62.00;;;;;;5935078;28;20066;-37
2022/11/16 08:44:17;;;;;;;0.82;0.35;;;21.30;61.90;;;;;;4626984;28;21444;-37
2022/11/16 08:47:56;;;;;;;0.60;0.30;;;21.10;61.70;;;;;;4953557;28;27649;-38
2022/11/16 08:51:09;;;;;;;0.75;0.15;;;20.90;60.00;;;;;;5866136;28;20048;-38
2022/11/16 08:54:28;;;;;;;1.10;0.40;;;21.20;61.40;;;;;;5837538;28;20065;-39
2022/11/16 08:57:31;;;;;;;0.63;0.30;;;21.00;61.10;;;;;;5852325;28;23542;-38
2022/11/16 09:00:37;;;;;;;0.85;0.30;;;21.50;61.00;;;;;;5861756;28;23260;-37
2022/11/16 09:03:39;;;;;;;0.93;0.47;;;21.20;60.50;;;;;;5908429;28;28869;-37
2022/11/16 09:06:41;;;;;;;0.52;0.30;;;21.30;61.10;;;;;;5939270;28;25117;-37
2022/11/16 09:09:42;;;;;;;;;;;21.10;60.80;;;;;;5948748;28;28191;-37
2022/11/16 09:12:44;;;;;;;1.33;0.35;;;21.50;61.10;;;;;;5952389;28;23535;-36
2022/11/16 09:15:46;;;;;;;0.45;0.20;;;21.50;60.70;;;;;;5949404;28;20129;-37
2022/11/16 09:18:49;;;;;;;0.70;0.40;;;21.40;61.00;;;;;;5939732;28;20040;-36
2022/11/16 09:21:51;;;;;;;1.02;0.40;;;21.90;61.20;;;;;;5931590;28;20176;-38
2022/11/16 09:24:52;;;;;;;0.90;0.30;;;21.50;60.70;;;;;;5966229;28;20091;-38
2022/11/16 09:27:54;;;;;;;;;;;21.50;60.40;;;;;;5980226;28;20632;-37
2022/11/16 09:31:00;;;;;;;1.45;0.40;;;21.60;61.00;;;;;;5937041;28;22352;-37
2022/11/16 09:34:02;;;;;;;0.52;0.30;;;21.40;60.80;;;;;;5965400;28;25991;-37
2022/11/16 09:37:04;;;;;;;0.50;0.20;;;21.30;60.90;;;;;;5932645;28;20166;-38
2022/11/16 09:40:07;;;;;;;0.55;0.30;;;21.80;61.00;;;;;;5956250;28;22477;-37
2022/11/16 09:43:23;;;;;;;0.88;0.50;;;21.50;61.10;;;;;;5971266;28;43549;-36
2022/11/16 09:46:30;;;;;;;1.25;0.45;;;21.50;61.10;;;;;;5970667;28;26026;-36
2022/11/16 09:49:38;;;;;;;0.47;0.20;;;21.50;61.00;;;;;;5936008;28;20981;-36
2022/11/16 09:52:45;;;;;;;1.15;0.40;;;21.60;60.80;;;;;;5980848;28;20036;-37
2022/11/16 09:55:50;;;;;;;0.65;0.38;;;21.50;61.00;;;;;;5971646;28;25764;-37
2022/11/16 09:58:57;;;;;;;1.30;0.55;;;21.30;60.90;;;;;;5963215;28;20317;-37
2022/11/16 10:02:04;;;;;;;2.72;0.50;;;21.30;61.10;;;;;;5919548;28;26626;-35
2022/11/16 10:05:15;;;;;;;1.80;1.02;;;21.50;61.20;;;;;;5955938;28;21549;-35
2022/11/16 10:08:22;;;;;;;9.07;1.57;;;21.50;61.10;;;;;;5916725;28;21013;-36
2022/11/16 10:11:49;;;;;;;1.55;0.90;;;21.70;61.30;;;;;;5922693;28;20297;-36
2022/11/16 10:15:06;;;;;;;2.38;0.93;;;21.40;61.40;;;;;;5950940;28;20182;-37
2022/11/16 10:18:31;;;;;;;2.65;1.00;;;21.30;61.30;;;;;;5982429;28;20121;-35
2022/11/16 10:21:42;;;;;;;1.02;0.68;;;21.20;61.70;;;;;;5994229;28;20081;-35
2022/11/16 10:24:55;;;;;;;0.95;0.55;;;21.40;61.50;;;;;;5916957;28;30992;-35
2022/11/16 10:28:20;;;;;;;1.20;0.55;;;21.60;61.50;;;;;;5947579;28;20037;-37
2022/11/16 10:31:30;;;;;;;1.10;0.43;;;21.20;61.50;;;;;;5961523;28;25408;-35
2022/11/16 10:34:41;;;;;;;1.25;0.50;;;21.50;61.90;;;;;;5934112;28;20048;-35
2022/11/16 10:37:46;;;;;;;0.63;0.32;;;21.20;61.60;;;;;;5951699;28;29758;-35
2022/11/16 10:40:52;;;;;;;0.63;0.32;;;21.60;61.90;;;;;;5976181;28;21584;-35
2022/11/16 10:43:56;;;;;;;0.43;0.30;;;21.30;61.70;;;;;;5955496;28;33467;-37
2022/11/16 10:47:03;;;;;;;2.10;0.57;;;21.70;62.00;;;;;;5934886;28;23948;-35
2022/11/16 10:50:30;;;;;;;1.08;0.40;;;21.70;62.20;;;;;;5956227;28;20040;-35
2022/11/16 10:53:34;;;;;;;1.00;0.50;;;21.30;62.00;;;;;;5899416;28;33869;-35
2022/11/16 10:56:39;;;;;;;0.98;0.45;;;21.20;62.30;;;;;;5937720;28;20134;-34
2022/11/16 10:59:43;;;;;;;0.90;0.30;;;21.70;62.70;;;;;;5938658;28;22181;-35
2022/11/16 11:02:48;;;;;;;1.42;0.50;;;21.50;62.10;;;;;;5942608;28;21307;-35
2022/11/16 11:05:52;;;;;;;0.88;0.38;;;21.30;62.20;;;;;;5952674;28;28775;-37
2022/11/16 11:08:54;;;;;;;0.90;0.50;;;21.40;62.20;;;;;;5972734;28;22713;-37
2022/11/16 11:15:21;;;;;;;1.02;0.50;;;21.30;62.10;;;;;;5974535;28;21393;-36
2022/11/16 11:18:28;;;;;;;0.85;0.35;;;21.20;62.30;;;;;;6000303;28;25360;-38
2022/11/16 11:21:30;;;;;;;0.73;0.30;;;21.80;62.50;;;;;;6003858;28;21610;-36
2022/11/16 11:24:32;;;;;;;1.13;0.40;;;21.70;62.70;;;;;;6026903;28;20978;-37
2022/11/16 11:27:49;;;;;;;2.05;0.50;;;21.60;62.70;;;;;;6036090;28;20226;-39
2022/11/16 11:30:56;;;;;;;1.33;0.30;;;21.30;62.90;;;;;;6029719;28;20044;-36
2022/11/16 11:34:13;;;;;;;1.30;0.50;;;21.60;62.70;;;;;;5999653;28;20048;-37
2022/11/16 11:37:17;;;;;;;0.90;0.40;;;21.70;62.90;;;;;;6086777;28;20067;-39
2022/11/16 11:40:23;;;;;;;0.30;0.20;;;21.60;62.80;;;;;;6099652;28;20160;-38
2022/11/16 11:43:25;;;;;;;0.50;0.30;;;21.50;62.80;;;;;;6044732;28;20182;-39
2022/11/16 11:46:29;;;;;;;0.77;0.40;;;21.60;63.10;;;;;;6086961;28;20128;-37
2022/11/16 11:49:58;;;;;;;0.65;0.45;;;21.50;62.80;;;;;;6070937;28;20044;-37
2022/11/16 11:53:07;;;;;;;1.50;0.32;;;21.50;63.00;;;;;;6126460;28;20149;-39
2022/11/16 11:56:11;;;;;;;0.30;0.20;;;22.00;63.20;;;;;;6111748;28;20929;-39
2022/11/16 11:59:18;;;;;;;0.85;0.30;;;21.30;62.70;;;;;;6114904;28;20090;-39
2022/11/16 12:02:39;;;;;;;0.60;0.20;;;21.80;62.80;;;;;;6077286;28;20040;-39
2022/11/16 12:05:59;;;;;;;0.70;0.22;;;21.70;63.10;;;;;;6086491;28;20169;-39
2022/11/16 12:09:16;;;;;;;0.30;0.22;;;21.70;62.90;;;;;;6076875;28;20048;-39
2022/11/16 12:12:33;;;;;;;1.25;0.40;;;21.70;62.90;;;;;;6060814;28;30849;-39
2022/11/16 12:15:50;;;;;;;0.68;0.50;;;21.70;62.90;;;;;;6101495;28;21114;-39
2022/11/16 12:19:07;;;;;;;0.63;0.32;;;21.50;62.70;;;;;;6103000;28;20125;-39
2022/11/16 12:22:23;;;;;;;0.60;0.30;;;21.60;62.90;;;;;;6061368;28;20048;-39
2022/11/16 12:25:33;;;;;;;0.47;0.30;;;21.70;62.70;;;;;;6150484;28;20040;-39
2022/11/16 12:28:50;;;;;;;0.57;0.20;;;21.70;62.90;;;;;;6101445;28;20047;-39
2022/11/16 12:32:13;;;;;;;0.40;0.20;;;21.70;62.90;;;;;;6053052;28;20040;-39
2022/11/16 12:35:32;;;;;;;0.40;0.20;;;21.70;63.10;;;;;;6087780;28;20087;-40
2022/11/16 12:38:52;;;;;;;0.40;0.20;;;21.60;63.10;;;;;;6074172;28;20125;-39
2022/11/16 12:42:16;;;;;;;0.63;0.32;;;21.10;63.00;;;;;;6084680;28;20084;-38
2022/11/16 12:45:37;;;;;;;1.48;0.30;;;21.70;63.30;;;;;;6025885;28;20244;-38
2022/11/16 12:48:58;;;;;;;0.65;0.30;;;21.70;63.80;;;;;;6026442;28;24317;-38
2022/11/16 12:52:14;;;;;;;0.43;0.10;;;21.90;63.60;;;;;;6063750;28;20055;-40
2022/11/16 12:55:24;;;;;;;0.73;0.30;;;21.30;63.50;;;;;;6019113;28;21284;-37
2022/11/16 12:58:46;;;;;;;0.60;0.32;;;21.40;63.70;;;;;;6046454;28;20044;-37
2022/11/16 13:01:57;;;;;;;0.43;0.20;;;21.40;63.90;;;;;;5975931;28;23383;-37
2022/11/16 13:05:11;;;;;;;0.68;0.30;;;21.30;64.00;;;;;;5968971;28;23146;-38
2022/11/16 13:08:19;;;;;;;1.73;0.30;;;21.40;64.10;;;;;;5994046;28;25255;-39
2022/11/16 13:11:26;;;;;;;1.00;0.35;;;21.80;64.80;;;;;;6003540;28;20036;-37
2022/11/16 13:14:32;;;;;;;1.00;0.55;;;21.40;64.70;;;;;;6043764;28;21683;-37
2022/11/16 13:17:37;;;;;;;1.10;0.30;;;21.70;65.00;;;;;;6065071;28;20055;-37
2022/11/16 13:20:47;;;;;;;0.30;0.20;;;21.60;65.00;;;;;;6014142;28;20051;-37
2022/11/16 13:24:00;;;;;;;0.35;0.20;;;21.30;65.20;;;;;;6049748;28;20040;-36
2022/11/16 13:27:24;;;;;;;0.73;0.32;;;21.50;64.90;;;;;;6030228;28;20067;-37
2022/11/16 13:30:32;;;;;;;0.40;0.40;;;21.80;65.50;;;;;;6048267;28;20159;-38
2022/11/16 13:33:43;;;;;;;0.25;0.22;;;21.70;65.10;;;;;;6015855;28;20052;-38
2022/11/16 13:36:51;;;;;;;0.50;0.30;;;21.80;65.60;;;;;;6034762;28;20044;-37
2022/11/16 13:40:09;;;;;;;0.32;0.20;;;21.80;65.60;;;;;;6034982;28;20080;-37
2022/11/16 13:43:18;;;;;;;0.20;0.20;;;21.40;65.40;;;;;;5995144;28;20047;-37
2022/11/16 13:46:19;;;;;;;0.22;0.10;;;21.60;65.90;;;;;;5969813;28;20382;-37
2022/11/16 13:49:48;;;;;;;;;;;21.30;65.20;;;;;;5993429;28;20152;-37
2022/11/16 13:52:56;;;;;;;1.33;0.65;;;21.70;65.70;;;;;;6025219;28;30900;-37
2022/11/16 13:56:19;;;;;;;0.93;0.20;;;21.50;65.70;;;;;;5994637;28;31436;-37
2022/11/16 13:59:31;;;;;;;0.10;0.10;;;21.70;65.80;;;;;;5970471;28;23662;-36
2022/11/16 14:02:35;;;;;;;0.65;0.40;;;21.60;65.70;;;;;;5986828;22;20660;-36
2022/11/16 14:05:40;;;;;;;0.60;0.30;;;21.70;65.90;;;;;;5922918;28;20158;-37
2022/11/16 14:08:48;;;;;;;0.90;0.30;;;21.70;65.80;;;;;;5902827;28;20608;-37
2022/11/16 14:11:50;;;;;;;0.40;0.20;;;21.40;65.80;;;;;;5947513;28;41270;-37
2022/11/16 14:15:14;;;;;;;0.77;0.38;;;21.80;65.90;;;;;;5948228;28;20053;-36
2022/11/16 14:18:35;;;;;;;0.32;0.30;;;21.80;66.10;;;;;;5943682;28;20053;-35
2022/11/16 14:21:48;;;;;;;0.30;0.20;;;21.90;66.30;;;;;;5924141;28;20086;-36
2022/11/16 14:24:55;;;;;;;0.93;0.30;;;21.90;66.20;;;;;;5960414;28;20049;-36
2022/11/16 14:28:07;;;;;;;0.10;0.10;;;21.90;66.00;;;;;;5916190;28;20049;-35
2022/11/16 14:31:20;;;;;;;0.57;0.28;;;21.90;66.10;;;;;;5945523;28;20172;-36
2022/11/16 14:34:26;;;;;;;0.25;0.13;;;22.40;66.30;;;;;;5951593;28;20044;-36
2022/11/16 14:37:31;;;;;;;0.20;0.20;;;21.60;66.30;;;;;;5919359;28;20111;-36
2022/11/16 14:40:42;;;;;;;1.80;0.20;;;22.00;66.30;;;;;;5938554;28;25435;-36
2022/11/16 14:43:46;;;;;;;0.47;0.20;;;21.90;66.10;;;;;;5978134;28;20041;-36
2022/11/16 14:46:51;;;;;;;0.45;0.20;;;21.70;66.30;;;;;;5951284;28;20077;-38
2022/11/16 14:49:54;;;;;;;0.35;0.20;;;21.70;66.20;;;;;;5965110;28;20099;-40
2022/11/16 14:53:00;;;;;;;0.60;0.20;;;21.60;66.10;;;;;;5890055;28;20051;-37
2022/11/16 14:56:07;;;;;;;0.13;0.10;;;21.80;66.30;;;;;;5927445;28;20131;-37
2022/11/16 14:59:16;;;;;;;0.40;0.20;;;21.80;66.30;;;;;;5927513;28;21802;-38
2022/11/16 15:02:22;;;;;;;0.43;0.10;;;22.10;66.70;;;;;;5870638;28;20045;-38
2022/11/16 15:05:28;;;;;;;0.20;0.10;;;21.90;66.70;;;;;;5878542;28;20544;-36
2022/11/16 15:08:34;;;;;;;0.30;0.20;;;22.10;67.00;;;;;;5842347;28;20041;-37
2022/11/16 15:14:57;;;;;;;0.10;0.10;;;22.10;67.00;;;;;;5872913;28;23511;-38
2022/11/16 15:18:12;;;;;;;0.35;0.20;;;22.00;66.90;;;;;;5912779;28;20052;-37
2022/11/16 15:21:20;;;;;;;0.20;0.10;;;22.00;67.20;;;;;;5907007;28;24448;-38
2022/11/16 15:24:25;;;;;;;2.33;0.20;;;22.00;67.20;;;;;;4663377;28;22156;-39
2022/11/16 15:27:36;;;;;;;0.20;0.10;;;21.50;67.80;;;;;;3810040;28;21661;-38
2022/11/16 15:30:39;;;;;;;0.20;0.20;;;21.80;67.10;;;;;;5912477;28;24923;-38
2022/11/16 15:33:42;;;;;;;0.17;0.10;;;21.80;67.50;;;;;;5905310;28;20082;-37
2022/11/16 15:36:45;;;;;;;0.50;0.28;;;22.20;67.80;;;;;;5953577;28;30678;-39
2022/11/16 15:39:46;;;;;;;0.35;0.20;;;22.10;67.80;;;;;;5929913;28;22494;-37
2022/11/16 15:42:50;;;;;;;;;;;21.80;67.80;;;;;;5927726;28;20044;-37
2022/11/16 15:45:53;;;;;;;0.40;0.20;;;22.40;68.40;;;;;;5918340;28;24549;-37
2022/11/16 15:48:56;;;;;;;0.43;0.20;;;21.70;68.20;;;;;;5896970;28;20095;-37
2022/11/16 15:51:58;;;;;;;0.50;0.10;;;22.00;68.50;;;;;;5929710;28;30943;-37
2022/11/16 15:55:03;;;;;;;0.20;0.17;;;22.00;68.90;;;;;;5917043;28;20049;-37
2022/11/16 15:58:12;;;;;;;0.10;0.10;;;22.00;69.20;;;;;;5959360;28;22607;-36
2022/11/16 16:01:15;;;;;;;0.10;0.10;;;21.80;69.20;;;;;;5925394;28;21948;-37
2022/11/16 16:04:18;;;;;;;0.90;0.20;;;21.80;69.50;;;;;;5896701;28;24120;-37
2022/11/16 16:07:35;;;;;;;0.13;0.10;;;21.60;69.40;;;;;;5939986;28;20052;-37
2022/11/16 16:10:36;;;;;;;0.63;0.13;;;21.90;69.90;;;;;;5941611;28;20314;-37
2022/11/16 16:13:40;;;;;;;0.20;0.20;;;22.10;69.80;;;;;;5939901;28;24117;-37
2022/11/16 16:16:42;;;;;;;0.10;0.10;;;21.70;70.10;;;;;;5855127;28;21679;-37
2022/11/16 16:19:45;;;;;;;0.10;0.00;;;22.10;70.00;;;;;;5938846;28;20044;-37
2022/11/16 16:22:47;;;;;;;0.88;0.10;;;22.00;69.70;;;;;;5923117;28;23161;-37
2022/11/16 16:25:48;;;;;;;;;;;22.10;70.40;;;;;;5916598;28;20045;-38
2022/11/16 16:28:52;;;;;;;0.63;0.50;;;22.40;71.00;;;;;;5898774;28;19929;-37
2022/11/16 16:31:54;;;;;;;0.35;0.30;;;22.10;69.70;;;;;;5894771;28;30072;-37
2022/11/16 16:34:58;;;;;;;0.50;0.25;;;21.70;70.50;;;;;;5922851;28;20045;-37
2022/11/16 16:38:00;;;;;;;3.60;0.30;;;22.00;70.50;;;;;;5907245;28;20045;-37
2022/11/16 16:41:03;;;;;;;1.45;0.10;;;22.00;70.70;;;;;;5872921;28;20115;-37
2022/11/16 16:44:12;;;;;;;0.25;0.20;;;22.00;69.80;;;;;;5908614;28;20041;-36
2022/11/16 16:47:15;;;;;;;0.95;0.75;;;21.70;69.50;;;;;;5846212;28;20080;-37
2022/11/16 16:50:17;;;;;;;0.20;0.20;;;21.90;69.80;;;;;;5894868;28;20053;-36
2022/11/16 16:53:19;;;;;;;0.43;0.20;;;21.80;69.70;;;;;;5929713;28;20089;-38
2022/11/16 16:56:20;;;;;;;0.30;0.20;;;21.80;69.20;;;;;;5976865;28;20037;-39
2022/11/16 16:59:22;;;;;;;0.30;0.10;;;22.00;69.20;;;;;;5973200;28;22375;-37
2022/11/16 17:02:25;;;;;;;0.43;0.20;;;22.10;62.50;;;;;;5966021;28;20102;-37